Latest Coastal Weather Observations for Mackay

IDQ60701

Issued at 8:21 am EST Sunday 11 December 2016 (issued every 10 minutes, with the page automatically refreshed every 10 minutes)

About coastal observations | Map of coastal stations | Coastal observations for QLD | Marine services | Other Formats
Station Details ID: 033119 Name: MACKAY M.O Lat: -21.12 Lon: 149.22 Height: 30.26 m
Data from the previous 72 hours. | See also: Recent months at Mackay
Date/Time
EST
Temp
°C
Wind Pressure Rain since
9am
mm
Weather Cloud Vis
km
Sea
Height
m
Swell
Dir  Spd
kts
Gust
kts
hPa Trend Height
m
Period
s
Dir
11/08:00am 26.3 ESE 10 18 1014.8 - 5.6 - Partly cloudy - - - - -
11/07:30am 25.8 ESE 11 17 1014.6 - 5.6 - Partly cloudy - - - - -
11/07:00am 23.9 SE 11 17 1014.3 - 5.6 - Partly cloudy - - - - -
11/06:30am 23.1 SSE 12 20 1013.8 - 4.2 - Partly cloudy - - - - -
11/06:05am 23.5 ESE 14 26 1013.9 - 3.0 - Partly cloudy - - - - -
11/06:00am 26.0 SE 11 18 1013.9 F 0.0 - Cloudy - - - - -
11/05:30am 25.8 SE 11 17 1013.5 - 0.0 - Partly cloudy - - - - -
11/05:00am 25.6 SE 11 17 1013.5 - 0.0 - Partly cloudy - - - - -
11/04:30am 25.7 SE 12 19 1013.2 - 0.0 - Partly cloudy - - - - -
11/04:00am 25.8 SE 12 20 1013.2 - 0.0 - Partly cloudy - - - - -
11/03:30am 25.7 SE 13 22 1013.3 - 0.0 - Partly cloudy - - - - -
11/03:00am 25.5 SE 15 24 1013.4 - 0.0 - Cloudy - - - - -
11/02:53am 25.4 SE 15 25 1013.4 - 0.0 - Partly cloudy - - - - -
11/02:30am 25.0 SE 15 24 1013.6 - 0.0 - Partly cloudy - - - - -
11/02:00am 24.7 SE 15 27 1014.0 - 0.0 - Partly cloudy - - - - -
11/01:44am 24.5 ESE 16 26 1014.0 - 0.0 - Partly cloudy - - - - -
11/01:36am 24.1 SE 16 26 1014.0 - 0.0 - Partly cloudy - - - - -
11/01:30am 24.0 SE 16 24 1014.0 - 0.0 - Partly cloudy - - - - -
11/01:15am 23.7 ESE 18 29 1013.9 - 0.0 - Partly cloudy - - - - -
11/01:11am 23.8 ESE 18 29 1014.0 - 0.0 - Partly cloudy - - - - -
11/01:00am 25.2 E 14 25 1014.1 - 0.0 - Partly cloudy - - - - -
11/12:30am 26.5 ENE 11 18 1014.3 - 0.0 - Partly cloudy - - - - -
11/12:00am 26.3 E 8 14 1014.6 - 0.0 - Cloudy - - - - -
 
Date/Time
EST
Temp
°C
Wind Pressure Rain since
9am
mm
Weather Cloud Vis
km
Sea
Height
m
Swell
Dir  Spd
kts
Gust
kts
hPa Trend Height
m
Period
s
Dir
10/11:30pm 26.1 ESE 9 14 1014.7 - 0.0 - Partly cloudy - - - - -
10/11:00pm 25.5 SSE 11 17 1014.8 - 0.0 - Partly cloudy - - - - -
10/10:30pm 25.3 SE 10 16 1015.1 - 0.0 - Partly cloudy - - - - -
10/10:02pm 24.8 SSE 11 17 1015.2 - 0.0 - Partly cloudy - - - - -
10/10:00pm 24.9 SSE 11 17 1015.2 - 0.0 - Partly cloudy - - - - -
10/09:46pm 25.3 ESE 12 19 1015.2 - 0.0 - Partly cloudy - - - - -
10/09:30pm 26.6 SE 7 13 1015.1 - 0.0 - Partly cloudy - - - - -
10/09:00pm 26.5 ESE 7 11 1014.7 R 0.0 - Cloudy - - - - -
10/08:30pm 26.3 ESE 9 14 1014.5 - 0.0 - Partly cloudy - - - - -
10/08:00pm 26.6 SE 7 13 1014.4 - 0.0 - Partly cloudy - - - - -
10/07:30pm 27.1 ESE 8 14 1014.0 - 0.0 - Partly cloudy - - - - -
10/07:00pm 27.1 ESE 8 12 1013.2 - 0.0 - Partly cloudy - - - - -
10/06:30pm 27.2 ESE 9 15 1012.8 - 0.0 - - - - - - -
10/06:00pm 27.2 ESE 9 14 1012.4 F 0.0 - Cloudy - - - - -
10/05:30pm 27.4 ESE 9 14 1011.8 - 0.0 - Partly cloudy - - - - -
10/05:00pm 27.4 ESE 9 15 1011.8 - 0.0 - Partly cloudy - - - - -
10/04:30pm 27.7 ESE 8 15 1012.0 - 0.0 - Partly cloudy - - - - -
10/04:00pm 28.1 ESE 7 12 1012.1 - 0.0 - Partly cloudy - - - - -
10/03:30pm 28.8 SE 8 12 1012.4 - 0.0 - Partly cloudy - - - - -
10/03:00pm 29.4 SE 7 11 1012.7 R 0.0 - Cloudy - - - - -
10/02:30pm 28.9 SE 7 12 1013.0 - 0.0 - Partly cloudy - - - - -
10/02:00pm 28.9 SE 7 11 1013.3 - 0.0 - - - - - - -
10/01:30pm 29.6 ESE 8 11 1013.4 - 0.0 - - - - - - -
10/01:00pm 29.9 ESE 7 12 1013.6 - 0.0 - - - - - - -
10/12:30pm 29.5 ESE 8 13 1013.7 - 0.0 - - - - - - -
10/12:00pm 28.9 ESE 7 11 1013.8 R 0.0 - - - - - - -
10/11:30am 29.5 ESE 8 12 1013.9 - 0.0 - - - - - - -
10/11:00am 29.2 ESE 7 11 1014.2 - 0.0 - Partly cloudy - - - - -
10/10:30am 29.8 ESE 7 11 1014.3 - 0.0 - Partly cloudy - - - - -
10/10:00am 29.4 ESE 7 11 1014.0 - 0.0 - Partly cloudy - - - - -
10/09:30am 28.8 SE 6 9 1014.2 - 0.0 - Partly cloudy - - - - -
10/09:00am 27.9 SSE 6 9 1014.1 R 0.0 - Cloudy - - - - -
10/08:30am 26.9 SSE 7 10 1014.2 - 0.0 - Partly cloudy - - - - -
10/08:00am 26.4 S 8 11 1013.9 - 0.0 - Partly cloudy - - - - -
10/07:30am 25.7 SSW 7 10 1013.7 - 0.0 - Partly cloudy - - - - -
10/07:00am 25.1 SW 5 8 1013.4 - 0.0 - Partly cloudy - - - - -
10/06:30am 24.7 SW 5 7 1013.1 - 0.0 - Partly cloudy - - - - -
10/06:00am 24.5 SSW 4 6 1012.8 R 0.0 - Cloudy - - - - -
10/05:30am 24.1 SW 7 9 1012.5 - 0.0 - Partly cloudy - - - - -
10/05:00am 23.5 SW 4 6 1012.0 - 0.0 - Partly cloudy - - - - -
10/04:30am 23.4 SSW 6 8 1011.6 - 0.0 - Partly cloudy - - - - -
10/04:00am 23.6 SSW 5 7 1011.3 - 0.0 - Partly cloudy - - - - -
10/03:30am 24.0 SSW 5 6 1011.0 - 0.0 - Partly cloudy - - - - -
10/03:00am 24.3 SW 5 6 1010.9 - 0.0 - Cloudy - - - - -
10/02:30am 24.7 SSW 7 10 1011.0 - 0.0 - Partly cloudy - - - - -
10/02:00am 26.1 ESE 3 5 1011.4 - 0.0 - Partly cloudy - - - - -
10/01:30am 26.3 ENE 5 8 1011.8 - 0.0 - Partly cloudy - - - - -
10/01:00am 26.6 ENE 6 9 1012.0 - 0.0 - Partly cloudy - - - - -
10/12:30am 26.5 ENE 5 8 1012.2 - 0.0 - Partly cloudy - - - - -
10/12:00am 26.6 ENE 5 8 1012.5 - 0.0 - Cloudy - - - - -
 
Date/Time
EST
Temp
°C
Wind Pressure Rain since
9am
mm
Weather Cloud Vis
km
Sea
Height
m
Swell
Dir  Spd
kts
Gust
kts
hPa Trend Height
m
Period
s
Dir
09/11:30pm 26.3 NNE 2 4 1012.5 - 0.0 - Partly cloudy - - - - -
09/11:00pm 26.5 NNW 1 4 1013.0 - 0.0 - Partly cloudy - - - - -
09/10:30pm 26.8 NNE 4 5 1013.2 - 0.0 - Partly cloudy - - - - -
09/10:00pm 26.9 NE 2 5 1013.4 - 0.0 - Partly cloudy - - - - -
09/09:30pm 26.9 NE 4 7 1012.6 - 0.0 - Partly cloudy - - - - -
09/09:00pm 26.8 N 6 9 1011.4 R 0.0 - Mostly cloudy - - - - -
09/08:30pm 26.8 NNE 5 11 1011.4 - 0.0 - Partly cloudy - - - - -
09/08:00pm 26.8 N 5 8 1011.3 - 0.0 - Partly cloudy - - - - -
09/07:30pm 26.9 N 7 13 1010.6 - 0.0 - Partly cloudy - - - - -
09/07:00pm 27.0 N 6 11 1010.1 - 0.0 - Partly cloudy - - - - -
09/06:30pm 27.3 N 5 9 1010.0 - 0.0 - Partly cloudy - - - - -
09/06:00pm 27.9 NNE 7 11 1009.7 R 0.0 - - - - - - -
09/05:30pm 29.1 NNE 7 11 1009.0 - 0.0 - - - - - - -
09/05:00pm 29.6 NNE 8 12 1008.8 - 0.0 - - - - - - -
09/04:30pm 30.0 NNE 9 14 1008.6 - 0.0 - - - - - - -
09/04:00pm 30.4 NNE 9 15 1008.7 - 0.0 - - - - - - -
09/03:30pm 31.2 NNE 9 15 1008.6 - 0.0 - - - - - - -
09/03:00pm 32.0 NNE 7 15 1008.9 R 0.0 - - - - - - -
09/02:30pm 31.8 NNE 8 14 1009.0 - 0.0 - - - - - - -
09/02:00pm 31.7 NNE 8 14 1009.4 - 0.0 - - - - - - -
09/01:30pm 31.0 NNE 9 15 1009.8 - 0.0 - - - - - - -
09/01:00pm 33.0 NNE 7 12 1010.0 - 0.0 - - - - - - -
09/12:30pm 33.5 NNE 7 12 1010.2 - 0.0 - - - - - - -
09/12:00pm 32.3 NNE 7 12 1010.5 F 0.0 - - - - - - -
09/11:30am 31.9 NNE 7 13 1010.8 - 0.0 - - - - - - -
09/11:00am 31.4 NE 7 12 1011.3 - 0.0 - - - - - - -
09/10:30am 30.5 ENE 7 11 1011.4 - 0.0 - - - - - - -
09/10:00am 31.4 ENE 6 9 1011.5 - 0.0 - - - - - - -
09/09:30am 29.7 E 5 8 1011.5 - 0.0 - Partly cloudy - - - - -
09/09:00am 29.4 ENE 3 6 1011.5 F 0.0 - Cloudy - - - - -
09/08:30am 27.7 WSW 3 5 1011.7 - 0.0 - Cloudy - - - - -
09/08:00am 26.6 SW 4 6 1011.9 - 0.0 - Partly cloudy - - - - -
09/07:30am 25.5 SW 7 10 1012.0 - 0.0 - Partly cloudy - - - - -
09/07:00am 24.8 SW 7 10 1011.6 - 0.0 - Partly cloudy - - - - -
09/06:30am 24.3 SW 5 8 1011.1 - 0.0 - Partly cloudy - - - - -
09/06:00am 23.4 WSW 4 6 1010.5 R 0.0 - Partly cloudy - - - - -
09/05:30am 23.4 WSW 5 6 1010.2 - 0.0 - Partly cloudy - - - - -
09/05:00am 23.9 WNW 3 5 1009.6 - 0.0 - Partly cloudy - - - - -
09/04:30am 23.9 W 3 5 1009.4 - 0.0 - Partly cloudy - - - - -
09/04:00am 23.8 WSW 5 6 1009.4 - 0.0 - Partly cloudy - - - - -
09/03:30am 24.0 SW 4 5 1009.3 - 0.0 - Partly cloudy - - - - -
09/03:00am 25.5 NNW 4 5 1009.2 - 0.0 - Mostly clear - - - - -
09/02:30am 25.8 NNW 4 6 1009.2 - 0.0 - Partly cloudy - - - - -
09/02:00am 25.9 N 7 11 1009.3 - 0.0 - Partly cloudy - - - - -
09/01:30am 25.9 N 7 12 1009.3 - 0.0 - Partly cloudy - - - - -
09/01:00am 26.0 N 6 10 1009.6 - 0.0 - Partly cloudy - - - - -
09/12:30am 26.0 N 6 10 1010.1 - 0.0 - Partly cloudy - - - - -
09/12:00am 26.0 N 6 10 1010.6 - 0.0 - Cloudy - - - - -
 
Date/Time
EST
Temp
°C
Wind Pressure Rain since
9am
mm
Weather Cloud Vis
km
Sea
Height
m
Swell
Dir  Spd
kts
Gust
kts
hPa Trend Height
m
Period
s
Dir
08/11:30pm 25.9 N 5 11 1011.2 - 0.0 - Partly cloudy - - - - -
08/11:00pm 26.1 N 6 9 1011.4 - 0.0 - Partly cloudy - - - - -
08/10:30pm 26.0 N 7 10 1011.3 - 0.0 - Partly cloudy - - - - -
08/10:00pm 26.2 N 7 11 1011.2 - 0.0 - Partly cloudy - - - - -
08/09:30pm 26.2 N 7 13 1011.1 - 0.0 - Partly cloudy - - - - -
08/09:00pm 26.2 N 8 13 1010.8 R 0.0 - Partly cloudy - - - - -
08/08:30pm 26.3 N 8 14 1010.5 - 0.0 - Partly cloudy - - - - -
08/08:00pm 26.3 N 7 14 1010.1 - 0.0 - Partly cloudy - - - - -
08/07:30pm 26.3 N 7 14 1009.9 - 0.0 - - - - - - -
08/07:00pm 26.3 N 8 13 1009.7 - 0.0 - - - - - - -
08/06:30pm 26.6 NNE 8 15 1009.4 - 0.0 - - - - - - -
08/06:00pm 27.3 NNE 8 14 1009.1 F 0.0 - - - - - - -
08/05:30pm 28.1 NNE 8 13 1009.0 - 0.0 - - - - - - -
08/05:00pm 29.0 NNE 8 13 1008.7 - 0.0 - - - - - - -
08/04:30pm 29.8 NNE 7 12 1008.7 - 0.0 - - - - - - -
08/04:00pm 30.2 NNE 7 12 1008.7 - 0.0 - - - - - - -
08/03:30pm 30.4 NE 7 11 1008.7 - 0.0 - - - - - - -
08/03:00pm 31.2 NNE 7 13 1009.1 S 0.0 - - - - - - -
08/02:30pm 30.9 NNE 8 12 1009.2 - 0.0 - - - - - - -
08/02:00pm 31.5 NNE 8 14 1009.5 - 0.0 - - - - - - -
08/01:30pm 32.1 NNE 8 12 1009.7 - 0.0 - - - - - - -
08/01:00pm 32.5 NE 6 9 1010.1 - 0.0 - - - - - - -
08/12:30pm 31.6 NNE 7 12 1010.4 - 0.0 - - - - - - -
08/12:00pm 30.6 NE 5 10 1010.9 F 0.0 - - - - - - -
08/11:30am 29.6 NE 6 9 1011.4 - 0.0 - - - - - - -
08/11:00am 30.2 NNE 5 10 1011.8 - 0.0 - - - - - - -
08/10:30am 30.9 NE 7 11 1012.1 - 0.0 - Partly cloudy - - - - -
08/10:00am 32.1 NE 7 12 1012.1 - 0.0 - Partly cloudy - - - - -
08/09:30am 31.1 NNE 6 11 1012.2 - 0.0 - Partly cloudy - - - - -
08/09:00am 30.2 NE 6 10 1012.3 F 0.0 - - - - - - -
08/08:30am 29.5 ENE 7 11 1012.3 - 0.0 - Partly cloudy - - - - -

Other Formats:

Comma delimited format used in spreadsheet applications
http://www.bom.gov.au/fwo/IDQ60701/IDQ60701.94367.axf

JavaScript Object Notation format (JSON) in row-major order
http://www.bom.gov.au/fwo/IDQ60701/IDQ60701.94367.json